sensor_id;sensor_type;location;lat;lon;timestamp;pressure;altitude;pressure_sealevel;temperature;humidity
18533;BME280;9396;51.510;11.934;2023-03-01T00:02:14;102049.97;;;-0.14;87.26
18533;BME280;9396;51.510;11.934;2023-03-01T00:04:42;102049.41;;;-0.25;86.93
18533;BME280;9396;51.510;11.934;2023-03-01T00:07:08;102043.09;;;-0.18;87.69
18533;BME280;9396;51.510;11.934;2023-03-01T00:09:36;102038.41;;;-0.07;87.95
18533;BME280;9396;51.510;11.934;2023-03-01T00:12:03;102026.88;;;0.00;87.99
18533;BME280;9396;51.510;11.934;2023-03-01T00:14:30;102028.72;;;-0.03;87.17
18533;BME280;9396;51.510;11.934;2023-03-01T00:16:56;102024.63;;;-0.12;86.68
18533;BME280;9396;51.510;11.934;2023-03-01T00:19:23;102034.28;;;-0.14;86.89
18533;BME280;9396;51.510;11.934;2023-03-01T00:21:51;102026.38;;;-0.12;86.84
18533;BME280;9396;51.510;11.934;2023-03-01T00:24:18;102039.97;;;-0.29;87.30
18533;BME280;9396;51.510;11.934;2023-03-01T00:26:45;102037.53;;;-0.35;87.28
18533;BME280;9396;51.510;11.934;2023-03-01T00:29:11;102024.28;;;-0.29;86.56
18533;BME280;9396;51.510;11.934;2023-03-01T00:31:38;102006.50;;;-0.16;87.38
18533;BME280;9396;51.510;11.934;2023-03-01T00:34:05;101901.69;;;-0.65;87.59
18533;BME280;9396;51.510;11.934;2023-03-01T00:36:34;101994.06;;;-0.10;87.19
18533;BME280;9396;51.510;11.934;2023-03-01T00:39:04;101999.25;;;-0.36;86.37
18533;BME280;9396;51.510;11.934;2023-03-01T00:41:31;102000.53;;;-0.50;87.40
18533;BME280;9396;51.510;11.934;2023-03-01T00:43:59;102006.03;;;-0.59;87.71
18533;BME280;9396;51.510;11.934;2023-03-01T00:46:26;102003.59;;;-0.65;88.35
18533;BME280;9396;51.510;11.934;2023-03-01T00:48:55;102003.47;;;-0.61;88.08
18533;BME280;9396;51.510;11.934;2023-03-01T00:51:25;102007.94;;;-0.66;88.21
18533;BME280;9396;51.510;11.934;2023-03-01T00:53:52;102007.31;;;-0.74;88.54
18533;BME280;9396;51.510;11.934;2023-03-01T00:56:21;102006.16;;;-0.64;88.67
18533;BME280;9396;51.510;11.934;2023-03-01T00:58:48;102016.22;;;-0.50;89.07
18533;BME280;9396;51.510;11.934;2023-03-01T01:01:16;102009.88;;;-0.42;88.14
18533;BME280;9396;51.510;11.934;2023-03-01T01:03:46;102002.47;;;-0.28;88.80
18533;BME280;9396;51.510;11.934;2023-03-01T01:06:14;101998.75;;;-0.21;88.75
18533;BME280;9396;51.510;11.934;2023-03-01T01:08:41;102003.72;;;-0.12;88.25
18533;BME280;9396;51.510;11.934;2023-03-01T01:11:08;102004.53;;;-0.10;87.68
18533;BME280;9396;51.510;11.934;2023-03-01T01:13:37;101997.34;;;-0.03;87.94
18533;BME280;9396;51.510;11.934;2023-03-01T01:16:04;101999.97;;;-0.03;87.98
18533;BME280;9396;51.510;11.934;2023-03-01T01:18:31;101979.19;;;-0.08;86.68
18533;BME280;9396;51.510;11.934;2023-03-01T01:21:03;101979.09;;;-0.05;86.85
18533;BME280;9396;51.510;11.934;2023-03-01T01:23:30;101984.13;;;0.02;86.64
18533;BME280;9396;51.510;11.934;2023-03-01T01:25:57;101989.38;;;0.02;86.74
18533;BME280;9396;51.510;11.934;2023-03-01T01:28:24;101979.75;;;0.02;87.33
18533;BME280;9396;51.510;11.934;2023-03-01T01:30:51;101981.41;;;0.05;87.11
18533;BME280;9396;51.510;11.934;2023-03-01T01:33:18;101977.00;;;0.07;87.64
18533;BME280;9396;51.510;11.934;2023-03-01T01:35:45;101968.34;;;0.05;86.78
18533;BME280;9396;51.510;11.934;2023-03-01T01:38:12;101960.69;;;-0.02;87.71
18533;BME280;9396;51.510;11.934;2023-03-01T01:40:43;101954.63;;;-0.04;87.83
18533;BME280;9396;51.510;11.934;2023-03-01T01:43:18;101938.94;;;-0.04;87.49
18533;BME280;9396;51.510;11.934;2023-03-01T01:45:45;101940.69;;;-0.03;86.84
18533;BME280;9396;51.510;11.934;2023-03-01T01:48:17;101949.72;;;-0.13;87.18
18533;BME280;9396;51.510;11.934;2023-03-01T01:50:45;101938.41;;;-0.13;87.40
18533;BME280;9396;51.510;11.934;2023-03-01T01:53:16;101937.94;;;-0.26;86.53
18533;BME280;9396;51.510;11.934;2023-03-01T01:55:47;101939.16;;;-0.37;86.53
18533;BME280;9396;51.510;11.934;2023-03-01T01:58:19;101941.91;;;-0.71;86.33
18533;BME280;9396;51.510;11.934;2023-03-01T02:00:48;101947.41;;;-0.80;87.70
18533;BME280;9396;51.510;11.934;2023-03-01T02:03:19;101953.50;;;-0.79;88.09
18533;BME280;9396;51.510;11.934;2023-03-01T02:05:51;101945.75;;;-0.82;88.67
18533;BME280;9396;51.510;11.934;2023-03-01T02:08:20;101953.59;;;-0.82;88.22
18533;BME280;9396;51.510;11.934;2023-03-01T02:10:49;101952.84;;;-0.86;88.79
18533;BME280;9396;51.510;11.934;2023-03-01T02:13:17;101888.84;;;-1.31;89.08
18533;BME280;9396;51.510;11.934;2023-03-01T02:15:44;101945.00;;;-0.86;88.74
18533;BME280;9396;51.510;11.934;2023-03-01T02:18:12;101942.38;;;-0.86;87.88
18533;BME280;9396;51.510;11.934;2023-03-01T02:20:50;101938.47;;;-0.71;87.95
18533;BME280;9396;51.510;11.934;2023-03-01T02:23:22;101926.69;;;-0.57;88.53
18533;BME280;9396;51.510;11.934;2023-03-01T02:25:54;101930.81;;;-0.48;87.87
18533;BME280;9396;51.510;11.934;2023-03-01T02:28:29;101928.91;;;-0.43;87.13
18533;BME280;9396;51.510;11.934;2023-03-01T02:30:56;101919.53;;;-0.50;87.67
18533;BME280;9396;51.510;11.934;2023-03-01T02:33:41;101923.84;;;-0.49;87.21
18533;BME280;9396;51.510;11.934;2023-03-01T02:36:12;101808.59;;;-1.23;86.42
18533;BME280;9396;51.510;11.934;2023-03-01T02:38:40;101923.28;;;-0.59;86.73
18533;BME280;9396;51.510;11.934;2023-03-01T02:41:08;101924.41;;;-0.67;86.87
18533;BME280;9396;51.510;11.934;2023-03-01T02:43:39;101930.31;;;-0.90;87.37
18533;BME280;9396;51.510;11.934;2023-03-01T02:46:07;101937.38;;;-0.93;86.87
18533;BME280;9396;51.510;11.934;2023-03-01T02:48:42;101940.44;;;-0.79;87.85
18533;BME280;9396;51.510;11.934;2023-03-01T02:51:24;101942.19;;;-0.80;87.66
18533;BME280;9396;51.510;11.934;2023-03-01T02:54:01;101941.91;;;-0.71;87.47
18533;BME280;9396;51.510;11.934;2023-03-01T02:56:33;101934.13;;;-0.72;86.64
18533;BME280;9396;51.510;11.934;2023-03-01T02:59:02;101940.19;;;-0.70;86.56
18533;BME280;9396;51.510;11.934;2023-03-01T03:01:30;101928.69;;;-0.65;86.36
18533;BME280;9396;51.510;11.934;2023-03-01T03:04:02;101930.50;;;-0.67;87.04
18533;BME280;9396;51.510;11.934;2023-03-01T03:06:29;101927.06;;;-0.69;86.61
18533;BME280;9396;51.510;11.934;2023-03-01T03:08:56;101939.34;;;-0.72;86.13
18533;BME280;9396;51.510;11.934;2023-03-01T03:11:23;101937.50;;;-0.69;86.69
18533;BME280;9396;51.510;11.934;2023-03-01T03:13:49;101939.78;;;-0.86;86.27
18533;BME280;9396;51.510;11.934;2023-03-01T03:16:18;101939.97;;;-0.93;85.98
18533;BME280;9396;51.510;11.934;2023-03-01T03:18:46;101940.91;;;-0.94;86.47
18533;BME280;9396;51.510;11.934;2023-03-01T03:21:13;101942.44;;;-0.89;86.27
18533;BME280;9396;51.510;11.934;2023-03-01T03:23:41;101939.00;;;-0.89;87.21
18533;BME280;9396;51.510;11.934;2023-03-01T03:26:08;101927.97;;;-0.99;86.83
18533;BME280;9396;51.510;11.934;2023-03-01T03:28:38;101937.69;;;-1.04;86.76
18533;BME280;9396;51.510;11.934;2023-03-01T03:31:06;101928.13;;;-1.05;87.35
18533;BME280;9396;51.510;11.934;2023-03-01T03:33:34;101933.44;;;-1.08;86.84
18533;BME280;9396;51.510;11.934;2023-03-01T03:36:01;101922.72;;;-0.99;86.99
18533;BME280;9396;51.510;11.934;2023-03-01T03:38:27;101921.03;;;-1.00;87.37
18533;BME280;9396;51.510;11.934;2023-03-01T03:41:00;101916.66;;;-0.99;87.08
18533;BME280;9396;51.510;11.934;2023-03-01T03:43:27;101918.59;;;-1.06;87.53
18533;BME280;9396;51.510;11.934;2023-03-01T03:45:54;101906.34;;;-1.04;87.38
18533;BME280;9396;51.510;11.934;2023-03-01T03:48:23;101911.56;;;-1.04;87.25
18533;BME280;9396;51.510;11.934;2023-03-01T03:50:53;101911.47;;;-1.01;87.50
18533;BME280;9396;51.510;11.934;2023-03-01T03:53:21;101910.72;;;-1.04;87.32
18533;BME280;9396;51.510;11.934;2023-03-01T03:55:47;101914.19;;;-1.04;87.13
18533;BME280;9396;51.510;11.934;2023-03-01T03:58:18;101908.31;;;-1.12;87.59
18533;BME280;9396;51.510;11.934;2023-03-01T04:00:46;101915.13;;;-1.07;87.95
18533;BME280;9396;51.510;11.934;2023-03-01T04:03:15;101765.97;;;-1.82;86.81
18533;BME280;9396;51.510;11.934;2023-03-01T04:05:42;101906.97;;;-0.96;87.60
18533;BME280;9396;51.510;11.934;2023-03-01T04:08:11;101904.28;;;-0.93;86.79
18533;BME280;9396;51.510;11.934;2023-03-01T04:10:39;101825.66;;;-1.42;87.26
18533;BME280;9396;51.510;11.934;2023-03-01T04:13:09;101906.84;;;-0.91;87.63
18533;BME280;9396;51.510;11.934;2023-03-01T04:15:37;101904.25;;;-0.91;87.09
18533;BME280;9396;51.510;11.934;2023-03-01T04:18:04;101905.00;;;-0.88;87.48
18533;BME280;9396;51.510;11.934;2023-03-01T04:20:33;101903.38;;;-0.92;87.26
18533;BME280;9396;51.510;11.934;2023-03-01T04:23:02;101899.97;;;-0.94;87.04
18533;BME280;9396;51.510;11.934;2023-03-01T04:25:37;101901.69;;;-0.93;86.67
18533;BME280;9396;51.510;11.934;2023-03-01T04:28:05;101899.06;;;-0.93;86.71
18533;BME280;9396;51.510;11.934;2023-03-01T04:30:32;101910.53;;;-0.98;86.11
18533;BME280;9396;51.510;11.934;2023-03-01T04:33:02;101915.88;;;-1.01;86.29
18533;BME280;9396;51.510;11.934;2023-03-01T04:35:28;101904.50;;;-1.00;86.09
18533;BME280;9396;51.510;11.934;2023-03-01T04:37:55;101903.56;;;-0.98;86.31
18533;BME280;9396;51.510;11.934;2023-03-01T04:40:22;101897.50;;;-0.98;86.90
18533;BME280;9396;51.510;11.934;2023-03-01T04:42:50;101894.84;;;-0.97;86.15
18533;BME280;9396;51.510;11.934;2023-03-01T04:45:16;101900.22;;;-1.03;86.06
18533;BME280;9396;51.510;11.934;2023-03-01T04:47:44;101901.03;;;-1.01;85.73
18533;BME280;9396;51.510;11.934;2023-03-01T04:50:14;101906.47;;;-1.09;86.24
18533;BME280;9396;51.510;11.934;2023-03-01T04:52:41;101907.44;;;-1.11;85.84
18533;BME280;9396;51.510;11.934;2023-03-01T04:55:09;101904.59;;;-1.03;86.27
18533;BME280;9396;51.510;11.934;2023-03-01T04:57:36;101906.25;;;-1.01;86.99
18533;BME280;9396;51.510;11.934;2023-03-01T05:00:06;101905.53;;;-1.06;86.77
18533;BME280;9396;51.510;11.934;2023-03-01T05:02:46;101895.00;;;-1.03;86.77
18533;BME280;9396;51.510;11.934;2023-03-01T05:05:14;101908.88;;;-1.01;86.79
18533;BME280;9396;51.510;11.934;2023-03-01T05:07:41;101896.63;;;-0.99;86.71
18533;BME280;9396;51.510;11.934;2023-03-01T05:10:09;101777.22;;;-1.81;86.86
18533;BME280;9396;51.510;11.934;2023-03-01T05:12:36;101905.50;;;-1.04;87.04
18533;BME280;9396;51.510;11.934;2023-03-01T05:15:06;101907.44;;;-1.11;86.80
18533;BME280;9396;51.510;11.934;2023-03-01T05:17:33;101902.31;;;-1.14;86.67
18533;BME280;9396;51.510;11.934;2023-03-01T05:20:00;101908.34;;;-1.14;86.46
18533;BME280;9396;51.510;11.934;2023-03-01T05:22:31;101899.75;;;-1.17;86.66
18533;BME280;9396;51.510;11.934;2023-03-01T05:24:58;101895.25;;;-1.12;86.55
18533;BME280;9396;51.510;11.934;2023-03-01T05:27:24;101901.53;;;-1.18;87.02
18533;BME280;9396;51.510;11.934;2023-03-01T05:29:51;101899.84;;;-1.20;87.08
18533;BME280;9396;51.510;11.934;2023-03-01T05:32:19;101898.88;;;-1.16;87.51
18533;BME280;9396;51.510;11.934;2023-03-01T05:34:46;101888.75;;;-1.27;86.91
18533;BME280;9396;51.510;11.934;2023-03-01T05:37:12;101888.13;;;-1.36;87.03
18533;BME280;9396;51.510;11.934;2023-03-01T05:39:39;101886.44;;;-1.39;86.46
18533;BME280;9396;51.510;11.934;2023-03-01T05:42:10;101897.03;;;-1.43;86.36
18533;BME280;9396;51.510;11.934;2023-03-01T05:44:37;101887.56;;;-1.47;86.98
18533;BME280;9396;51.510;11.934;2023-03-01T05:47:04;101893.72;;;-1.50;87.12
18533;BME280;9396;51.510;11.934;2023-03-01T05:49:32;101894.38;;;-1.42;87.21
18533;BME280;9396;51.510;11.934;2023-03-01T05:52:00;101895.94;;;-1.36;87.09
18533;BME280;9396;51.510;11.934;2023-03-01T05:54:26;101894.94;;;-1.31;87.46
18533;BME280;9396;51.510;11.934;2023-03-01T05:56:53;101906.97;;;-1.25;87.17
18533;BME280;9396;51.510;11.934;2023-03-01T05:59:20;101900.78;;;-1.23;86.91
18533;BME280;9396;51.510;11.934;2023-03-01T06:01:46;101897.25;;;-1.20;87.15
18533;BME280;9396;51.510;11.934;2023-03-01T06:04:13;101905.97;;;-1.21;86.87
18533;BME280;9396;51.510;11.934;2023-03-01T06:06:41;101901.69;;;-1.24;87.46
18533;BME280;9396;51.510;11.934;2023-03-01T06:09:07;101906.91;;;-1.24;86.67
18533;BME280;9396;51.510;11.934;2023-03-01T06:11:35;101915.47;;;-1.19;87.28
18533;BME280;9396;51.510;11.934;2023-03-01T06:14:02;101905.69;;;-1.11;87.18
18533;BME280;9396;51.510;11.934;2023-03-01T06:16:29;101909.16;;;-1.12;87.16
18533;BME280;9396;51.510;11.934;2023-03-01T06:18:55;101901.34;;;-1.12;86.73
18533;BME280;9396;51.510;11.934;2023-03-01T06:21:22;101908.16;;;-1.06;86.77
18533;BME280;9396;51.510;11.934;2023-03-01T06:23:50;101908.97;;;-1.04;87.26
18533;BME280;9396;51.510;11.934;2023-03-01T06:26:17;101907.22;;;-1.05;86.67
18533;BME280;9396;51.510;11.934;2023-03-01T06:28:43;101910.75;;;-1.06;86.80
18533;BME280;9396;51.510;11.934;2023-03-01T06:31:11;101912.75;;;-1.14;86.91
18533;BME280;9396;51.510;11.934;2023-03-01T06:33:38;101914.28;;;-1.09;86.62
18533;BME280;9396;51.510;11.934;2023-03-01T06:36:05;101904.72;;;-1.08;86.93
18533;BME280;9396;51.510;11.934;2023-03-01T06:38:32;101911.66;;;-1.07;86.45
18533;BME280;9396;51.510;11.934;2023-03-01T06:41:00;101915.94;;;-1.04;87.37
18533;BME280;9396;51.510;11.934;2023-03-01T06:43:27;101907.22;;;-1.03;86.97
18533;BME280;9396;51.510;11.934;2023-03-01T06:45:54;101910.41;;;-0.94;86.69
18533;BME280;9396;51.510;11.934;2023-03-01T06:48:21;101907.94;;;-0.98;87.45
18533;BME280;9396;51.510;11.934;2023-03-01T06:50:47;101907.06;;;-0.99;86.99
18533;BME280;9396;51.510;11.934;2023-03-01T06:53:14;101905.06;;;-0.89;87.10
18533;BME280;9396;51.510;11.934;2023-03-01T06:55:41;101906.16;;;-0.69;87.17
18533;BME280;9396;51.510;11.934;2023-03-01T06:58:09;101899.78;;;-0.59;87.17
18533;BME280;9396;51.510;11.934;2023-03-01T07:00:36;101898.59;;;-0.49;87.29
18533;BME280;9396;51.510;11.934;2023-03-01T07:03:05;101887.81;;;-0.38;86.63
18533;BME280;9396;51.510;11.934;2023-03-01T07:05:33;101894.38;;;-0.27;86.57
18533;BME280;9396;51.510;11.934;2023-03-01T07:08:00;101887.97;;;-0.17;87.13
18533;BME280;9396;51.510;11.934;2023-03-01T07:10:26;101895.72;;;-0.14;86.73
18533;BME280;9396;51.510;11.934;2023-03-01T07:12:54;101897.06;;;-0.56;87.59
18533;BME280;9396;51.510;11.934;2023-03-01T07:15:23;101900.00;;;-0.39;87.52
18533;BME280;9396;51.510;11.934;2023-03-01T07:17:49;101895.19;;;-0.25;87.47
18533;BME280;9396;51.510;11.934;2023-03-01T07:20:16;101869.78;;;-0.47;87.11
18533;BME280;9396;51.510;11.934;2023-03-01T07:22:43;101884.75;;;-0.52;87.98
18533;BME280;9396;51.510;11.934;2023-03-01T07:25:10;101879.38;;;-0.48;87.63
18533;BME280;9396;51.510;11.934;2023-03-01T07:27:37;101892.09;;;-0.37;88.41
18533;BME280;9396;51.510;11.934;2023-03-01T07:30:04;101882.22;;;-0.28;87.91
18533;BME280;9396;51.510;11.934;2023-03-01T07:32:33;101876.06;;;-0.25;88.51
18533;BME280;9396;51.510;11.934;2023-03-01T07:35:00;101887.16;;;-0.19;87.88
18533;BME280;9396;51.510;11.934;2023-03-01T07:37:26;101884.19;;;-0.08;88.50
18533;BME280;9396;51.510;11.934;2023-03-01T07:39:53;101889.63;;;-0.14;88.03
18533;BME280;9396;51.510;11.934;2023-03-01T07:42:20;101886.00;;;-0.10;88.33
18533;BME280;9396;51.510;11.934;2023-03-01T07:44:46;101882.94;;;0.04;88.73
18533;BME280;9396;51.510;11.934;2023-03-01T07:47:13;101886.78;;;0.18;89.14
18533;BME280;9396;51.510;11.934;2023-03-01T07:49:41;101872.50;;;0.28;88.54
18533;BME280;9396;51.510;11.934;2023-03-01T07:52:10;101861.00;;;-0.45;90.07
18533;BME280;9396;51.510;11.934;2023-03-01T07:54:38;101874.38;;;-0.28;91.30
18533;BME280;9396;51.510;11.934;2023-03-01T07:57:05;101874.50;;;-0.05;90.73
18533;BME280;9396;51.510;11.934;2023-03-01T07:59:31;101875.88;;;0.07;90.88
18533;BME280;9396;51.510;11.934;2023-03-01T08:01:58;101876.25;;;0.21;89.74
18533;BME280;9396;51.510;11.934;2023-03-01T08:04:25;101876.06;;;0.26;90.31
18533;BME280;9396;51.510;11.934;2023-03-01T08:06:53;101874.97;;;0.33;90.07
18533;BME280;9396;51.510;11.934;2023-03-01T08:09:21;101870.78;;;0.52;89.12
18533;BME280;9396;51.510;11.934;2023-03-01T08:11:47;101869.75;;;0.56;89.31
18533;BME280;9396;51.510;11.934;2023-03-01T08:14:14;101870.44;;;0.62;89.19
18533;BME280;9396;51.510;11.934;2023-03-01T08:16:41;101870.19;;;0.91;89.14
18533;BME280;9396;51.510;11.934;2023-03-01T08:19:09;101876.09;;;0.73;88.19
18533;BME280;9396;51.510;11.934;2023-03-01T08:21:36;101879.25;;;0.83;88.06
18533;BME280;9396;51.510;11.934;2023-03-01T08:24:05;101873.34;;;0.78;88.68
18533;BME280;9396;51.510;11.934;2023-03-01T08:26:33;101865.00;;;0.67;89.09
18533;BME280;9396;51.510;11.934;2023-03-01T08:29:00;101865.22;;;0.85;88.73
18533;BME280;9396;51.510;11.934;2023-03-01T08:31:29;101859.59;;;0.71;89.10
18533;BME280;9396;51.510;11.934;2023-03-01T08:33:58;101862.63;;;0.84;89.05
18533;BME280;9396;51.510;11.934;2023-03-01T08:36:26;101859.09;;;1.08;89.45
18533;BME280;9396;51.510;11.934;2023-03-01T08:38:53;101867.53;;;0.93;87.72
18533;BME280;9396;51.510;11.934;2023-03-01T08:41:21;101862.75;;;1.04;88.16
18533;BME280;9396;51.510;11.934;2023-03-01T08:43:48;101855.88;;;1.23;87.29
18533;BME280;9396;51.510;11.934;2023-03-01T08:46:14;101860.25;;;1.01;87.90
18533;BME280;9396;51.510;11.934;2023-03-01T08:48:41;101857.16;;;0.90;89.14
18533;BME280;9396;51.510;11.934;2023-03-01T08:51:09;101849.19;;;0.93;89.44
18533;BME280;9396;51.510;11.934;2023-03-01T08:53:36;101843.59;;;1.02;88.66
18533;BME280;9396;51.510;11.934;2023-03-01T08:56:03;101849.28;;;1.13;87.31
18533;BME280;9396;51.510;11.934;2023-03-01T08:58:32;101854.66;;;1.10;88.02
18533;BME280;9396;51.510;11.934;2023-03-01T09:00:59;101856.50;;;1.30;87.53
18533;BME280;9396;51.510;11.934;2023-03-01T09:03:26;101845.41;;;1.23;86.93
18533;BME280;9396;51.510;11.934;2023-03-01T09:05:53;101846.63;;;1.36;88.38
18533;BME280;9396;51.510;11.934;2023-03-01T09:08:26;101844.44;;;1.47;87.10
18533;BME280;9396;51.510;11.934;2023-03-01T09:10:52;101842.38;;;1.55;86.70
18533;BME280;9396;51.510;11.934;2023-03-01T09:13:19;101836.66;;;1.67;86.08
18533;BME280;9396;51.510;11.934;2023-03-01T09:15:47;101839.38;;;1.64;85.55
18533;BME280;9396;51.510;11.934;2023-03-01T09:18:13;101838.28;;;1.70;85.58
18533;BME280;9396;51.510;11.934;2023-03-01T09:20:40;101842.56;;;1.72;84.52
18533;BME280;9396;51.510;11.934;2023-03-01T09:23:07;101835.16;;;1.82;84.55
18533;BME280;9396;51.510;11.934;2023-03-01T09:25:34;101828.69;;;2.10;84.05
18533;BME280;9396;51.510;11.934;2023-03-01T09:28:01;101827.13;;;2.06;83.12
18533;BME280;9396;51.510;11.934;2023-03-01T09:30:27;101831.44;;;2.07;83.38
18533;BME280;9396;51.510;11.934;2023-03-01T09:32:56;101837.56;;;2.08;82.73
18533;BME280;9396;51.510;11.934;2023-03-01T09:35:22;101822.06;;;2.22;82.66
18533;BME280;9396;51.510;11.934;2023-03-01T09:37:49;101814.78;;;2.29;82.81
18533;BME280;9396;51.510;11.934;2023-03-01T09:40:18;101819.88;;;2.32;81.11
18533;BME280;9396;51.510;11.934;2023-03-01T09:42:51;101809.25;;;2.35;81.00
18533;BME280;9396;51.510;11.934;2023-03-01T09:45:25;101819.84;;;2.33;80.59
18533;BME280;9396;51.510;11.934;2023-03-01T09:47:55;101626.34;;;1.39;80.25
18533;BME280;9396;51.510;11.934;2023-03-01T09:50:23;101808.31;;;2.56;79.53
18533;BME280;9396;51.510;11.934;2023-03-01T09:53:00;101812.91;;;2.51;80.23
18533;BME280;9396;51.510;11.934;2023-03-01T09:55:30;101804.38;;;2.46;79.04
18533;BME280;9396;51.510;11.934;2023-03-01T09:58:01;101803.38;;;2.68;80.42
18533;BME280;9396;51.510;11.934;2023-03-01T10:00:37;101813.16;;;2.65;78.88
18533;BME280;9396;51.510;11.934;2023-03-01T10:03:14;101802.72;;;2.63;79.70
18533;BME280;9396;51.510;11.934;2023-03-01T10:05:57;101805.84;;;2.71;79.19
18533;BME280;9396;51.510;11.934;2023-03-01T10:08:33;101790.16;;;2.70;79.19
18533;BME280;9396;51.510;11.934;2023-03-01T10:11:03;101805.09;;;2.88;79.23
18533;BME280;9396;51.510;11.934;2023-03-01T10:13:37;101797.47;;;2.82;79.66
18533;BME280;9396;51.510;11.934;2023-03-01T10:16:13;101805.44;;;2.80;80.20
18533;BME280;9396;51.510;11.934;2023-03-01T10:18:54;101803.94;;;2.75;80.24
18533;BME280;9396;51.510;11.934;2023-03-01T10:21:23;101796.91;;;2.75;81.08
18533;BME280;9396;51.510;11.934;2023-03-01T10:23:51;101795.13;;;2.94;81.53
18533;BME280;9396;51.510;11.934;2023-03-01T10:26:37;101799.22;;;2.81;81.32
18533;BME280;9396;51.510;11.934;2023-03-01T10:29:08;101795.47;;;2.87;80.86
18533;BME280;9396;51.510;11.934;2023-03-01T10:31:41;101802.31;;;2.72;82.12
18533;BME280;9396;51.510;11.934;2023-03-01T10:34:15;101792.13;;;2.83;81.48
18533;BME280;9396;51.510;11.934;2023-03-01T10:36:43;101795.69;;;3.01;81.99
18533;BME280;9396;51.510;11.934;2023-03-01T10:39:16;101795.06;;;2.96;80.04
18533;BME280;9396;51.510;11.934;2023-03-01T10:41:56;101802.44;;;3.06;79.74
18533;BME280;9396;51.510;11.934;2023-03-01T10:44:38;101789.44;;;3.03;79.07
18533;BME280;9396;51.510;11.934;2023-03-01T10:47:12;101800.88;;;2.84;79.60
18533;BME280;9396;51.510;11.934;2023-03-01T10:49:55;101796.25;;;2.89;79.78
18533;BME280;9396;51.510;11.934;2023-03-01T10:52:24;101798.81;;;3.09;80.79
18533;BME280;9396;51.510;11.934;2023-03-01T10:54:54;101789.22;;;3.08;80.10
18533;BME280;9396;51.510;11.934;2023-03-01T10:57:36;101786.84;;;3.20;80.11
18533;BME280;9396;51.510;11.934;2023-03-01T11:00:20;101789.56;;;3.19;78.54
18533;BME280;9396;51.510;11.934;2023-03-01T11:02:49;101781.91;;;3.14;77.39
18533;BME280;9396;51.510;11.934;2023-03-01T11:05:21;101775.69;;;3.34;78.55
18533;BME280;9396;51.510;11.934;2023-03-01T11:07:51;101773.69;;;3.39;76.32
18533;BME280;9396;51.510;11.934;2023-03-01T11:10:20;101770.28;;;3.37;76.44
18533;BME280;9396;51.510;11.934;2023-03-01T11:12:47;101766.59;;;3.41;77.29
18533;BME280;9396;51.510;11.934;2023-03-01T11:15:24;101765.97;;;3.36;78.29
18533;BME280;9396;51.510;11.934;2023-03-01T11:17:51;101754.22;;;3.43;77.95
18533;BME280;9396;51.510;11.934;2023-03-01T11:20:25;101754.84;;;3.48;77.50
18533;BME280;9396;51.510;11.934;2023-03-01T11:22:54;101754.53;;;3.54;75.53
18533;BME280;9396;51.510;11.934;2023-03-01T11:25:24;101745.72;;;3.55;74.32
18533;BME280;9396;51.510;11.934;2023-03-01T11:27:53;101746.41;;;3.59;74.74
18533;BME280;9396;51.510;11.934;2023-03-01T11:30:23;101742.16;;;3.73;75.88
18533;BME280;9396;51.510;11.934;2023-03-01T11:32:57;101739.19;;;3.79;75.61
18533;BME280;9396;51.510;11.934;2023-03-01T11:35:29;101737.75;;;3.91;76.61
18533;BME280;9396;51.510;11.934;2023-03-01T11:38:05;101725.28;;;3.94;76.23
18533;BME280;9396;51.510;11.934;2023-03-01T11:40:41;101735.72;;;3.96;74.34
18533;BME280;9396;51.510;11.934;2023-03-01T11:43:16;101732.88;;;3.83;74.32
18533;BME280;9396;51.510;11.934;2023-03-01T11:49:03;101723.03;;;4.04;73.17
18533;BME280;9396;51.510;11.934;2023-03-01T11:51:44;101732.91;;;4.16;73.08
18533;BME280;9396;51.510;11.934;2023-03-01T11:54:24;101732.94;;;4.31;73.34
18533;BME280;9396;51.510;11.934;2023-03-01T11:56:57;101725.44;;;4.24;72.29
18533;BME280;9396;51.510;11.934;2023-03-01T11:59:45;101718.81;;;4.17;70.42
18533;BME280;9396;51.510;11.934;2023-03-01T12:02:46;101708.81;;;4.23;70.59
18533;BME280;9396;51.510;11.934;2023-03-01T12:05:49;101711.56;;;4.38;69.10
18533;BME280;9396;51.510;11.934;2023-03-01T12:08:31;101711.88;;;4.31;67.41
18533;BME280;9396;51.510;11.934;2023-03-01T12:11:04;101705.44;;;4.37;67.75
18533;BME280;9396;51.510;11.934;2023-03-01T12:13:55;101698.72;;;4.47;67.45
18533;BME280;9396;51.510;11.934;2023-03-01T12:16:34;101700.34;;;4.50;67.56
18533;BME280;9396;51.510;11.934;2023-03-01T12:19:16;101689.50;;;4.56;67.46
18533;BME280;9396;51.510;11.934;2023-03-01T12:22:00;101686.88;;;4.56;68.39
18533;BME280;9396;51.510;11.934;2023-03-01T12:24:43;101686.69;;;4.59;68.79
18533;BME280;9396;51.510;11.934;2023-03-01T12:27:30;101676.22;;;4.73;66.51
18533;BME280;9396;51.510;11.934;2023-03-01T12:30:15;101665.00;;;4.69;64.85
18533;BME280;9396;51.510;11.934;2023-03-01T12:32:55;101670.44;;;4.82;66.12
18533;BME280;9396;51.510;11.934;2023-03-01T12:35:36;101678.75;;;4.90;65.40
18533;BME280;9396;51.510;11.934;2023-03-01T12:38:22;101664.13;;;4.84;64.42
18533;BME280;9396;51.510;11.934;2023-03-01T12:41:11;101654.69;;;4.96;64.78
18533;BME280;9396;51.510;11.934;2023-03-01T12:43:49;101664.06;;;4.86;65.20
18533;BME280;9396;51.510;11.934;2023-03-01T12:46:31;101663.97;;;4.87;65.55
18533;BME280;9396;51.510;11.934;2023-03-01T12:49:08;101650.44;;;4.93;65.87
18533;BME280;9396;51.510;11.934;2023-03-01T12:51:37;101655.84;;;5.06;65.39
18533;BME280;9396;51.510;11.934;2023-03-01T12:54:07;101649.09;;;5.02;65.65
18533;BME280;9396;51.510;11.934;2023-03-01T12:56:42;101642.19;;;4.99;64.74
18533;BME280;9396;51.510;11.934;2023-03-01T12:59:15;101646.16;;;5.06;64.68
18533;BME280;9396;51.510;11.934;2023-03-01T13:01:49;101643.88;;;5.00;64.42
18533;BME280;9396;51.510;11.934;2023-03-01T13:04:24;101637.19;;;4.95;63.85
18533;BME280;9396;51.510;11.934;2023-03-01T13:07:02;101639.38;;;5.02;64.38
18533;BME280;9396;51.510;11.934;2023-03-01T13:09:37;101631.31;;;4.90;63.74
18533;BME280;9396;51.510;11.934;2023-03-01T13:15:24;101618.19;;;5.04;63.89
18533;BME280;9396;51.510;11.934;2023-03-01T13:17:53;101631.50;;;5.16;63.00